Boise, ID (83729)

3:46 PM MDT on September 17, 2014 (GMT -0600)
MesoWest BOISE ID US AGRIMET | Change Station
CLOSE
Current Station
Personal Weather Station
Location: Boise, ID
Elevation: 2720 ft
Nearby Weather Stations

Elev 2720 ft 43.60 °N, 116.18 °W | Updated 46 minutes ago

Mostly Cloudy
Mostly Cloudy
90 °F
Feels Like 86 °F
N
1
Wind Variable Wind from SW
Gusts 3.0 mph

Today
High -- | Low -- °F
--% Chance of Precip.
Yesterday
High -- | Low -- °F
Precip. -- in
7:26 AM 7:51 PM
Waning Crescent, 33% visible
Pressure 29.70 in
Visibility 10.0 miles
Clouds Clear
Heat Index 86 °F
Dew Point 45 °F
Humidity 21%
Rainfall 0.00 in
Snow Depth 0 in , 0 in , 0 in
UV 7 out of 12
Pollen 8.00 out of 12
PM2.5 Good
Flu Activity Not available.
METAR KBOI 172053Z 34004KT 10SM CLR 33/04 A2981 RMK AO2 SLP057 T03280039 58018

More Conditions Fewer Conditions

Pressure 29.70 in
Visibility 10.0 miles
Clouds Clear
Heat Index 86 °F
Dew Point 45 °F
Humidity 21%
Rainfall 0.00 in
Snow Depth 0 in , 0 in , 0 in
UV 7 out of 12
Pollen 8.00 out of 12
PM2.5 Good
Flu Activity Not available.
METAR KBOI 172053Z 34004KT 10SM CLR 33/04 A2981 RMK AO2 SLP057 T03280039 58018

More Conditions Fewer Conditions

10-Day Weather Forecast

Almanac

Astronomy

Sep. 17, 2014 Rise Set
Actual Time 7:26 AM MDT 7:51 PM MDT
Civil Twilight 6:57 AM MDT 8:19 PM MDT
Nautical Twilight 6:23 AM MDT 8:53 PM MDT
Astronomical Twilight 5:48 AM MDT 9:28 PM MDT
Moon 1:22 AM MDT 4:11 PM MDT
Length of Visible Light 13h 22m
Length of Day
12h 24m
Tomorrow will be 2m 58s shorter.
Waning Crescent, 33% of the Moon is Illuminated
Today
Waning Crescent
Sep 24
New
Oct 1
First Quarter
Oct 8
Full
Oct 15
Last Quarter

Today's Extremes

State Highs State Lows

Community

WunderPhotos

Upload Photos

1,754,171 photos uploaded!

Nearby

Air Quality

  Air Quality AQ Index Pollutant
Yesterday Good
PM10
Yesterday Moderate
OZONE
Current Good
PM2.5
Wednesday Moderate
PM2.5
Wednesday Good
OZONE
Thursday Moderate
PM2.5
Thursday Good
OZONE
Friday Moderate
PM2.5
Friday Good
OZONE

Snow Depth

Station Depth Elevation
South Mountain 0 in 6500 ft
Smiley Mountain 0 in 9520 ft
Mosquito Ridge 0 in 5200 ft
Sunset 0 in 5540 ft
Savage Pass 1 in 6170 ft

Earthquake Activity

City Distance Mag. Time & Date
No recent earthquake activity has been reported nearby.
Minimum magnitude displayed is 2.5.

Coastal Water Temperatures

Place Temperature
No Stations Reporting

Nearby Weather Stations